sensor_id;sensor_type;location;lat;lon;timestamp;P1;durP1;ratioP1;P2;durP2;ratioP2
8610;SDS011;4343;53.648;10.098;2022-09-01T00:02:24;0.90;;;0.90;;
8610;SDS011;4343;53.648;10.098;2022-09-01T00:04:53;0.90;;;0.90;;
8610;SDS011;4343;53.648;10.098;2022-09-01T00:07:22;1.00;;;1.00;;
8610;SDS011;4343;53.648;10.098;2022-09-01T00:09:50;0.90;;;0.90;;
8610;SDS011;4343;53.648;10.098;2022-09-01T00:12:16;0.95;;;0.95;;
8610;SDS011;4343;53.648;10.098;2022-09-01T00:14:42;1.00;;;1.00;;
8610;SDS011;4343;53.648;10.098;2022-09-01T00:17:08;0.83;;;0.83;;
8610;SDS011;4343;53.648;10.098;2022-09-01T00:19:35;0.90;;;0.90;;
8610;SDS011;4343;53.648;10.098;2022-09-01T00:22:03;0.98;;;0.98;;
8610;SDS011;4343;53.648;10.098;2022-09-01T00:24:29;0.90;;;0.90;;
8610;SDS011;4343;53.648;10.098;2022-09-01T00:26:55;0.97;;;0.97;;
8610;SDS011;4343;53.648;10.098;2022-09-01T00:29:21;1.00;;;1.00;;
8610;SDS011;4343;53.648;10.098;2022-09-01T00:31:48;0.98;;;0.98;;
8610;SDS011;4343;53.648;10.098;2022-09-01T00:34:14;0.90;;;0.90;;
8610;SDS011;4343;53.648;10.098;2022-09-01T00:36:41;0.98;;;0.98;;
8610;SDS011;4343;53.648;10.098;2022-09-01T00:39:06;1.20;;;1.20;;
8610;SDS011;4343;53.648;10.098;2022-09-01T00:41:34;0.90;;;0.90;;
8610;SDS011;4343;53.648;10.098;2022-09-01T00:44:04;1.02;;;1.00;;
8610;SDS011;4343;53.648;10.098;2022-09-01T00:46:36;0.80;;;0.80;;
8610;SDS011;4343;53.648;10.098;2022-09-01T00:49:05;1.10;;;1.10;;
8610;SDS011;4343;53.648;10.098;2022-09-01T00:51:35;0.90;;;0.90;;
8610;SDS011;4343;53.648;10.098;2022-09-01T00:54:02;1.20;;;1.10;;
8610;SDS011;4343;53.648;10.098;2022-09-01T00:56:30;0.90;;;0.90;;
8610;SDS011;4343;53.648;10.098;2022-09-01T00:58:58;0.90;;;0.90;;
8610;SDS011;4343;53.648;10.098;2022-09-01T01:01:24;1.00;;;1.00;;
8610;SDS011;4343;53.648;10.098;2022-09-01T01:03:49;0.80;;;0.80;;
8610;SDS011;4343;53.648;10.098;2022-09-01T01:06:15;1.03;;;1.03;;
8610;SDS011;4343;53.648;10.098;2022-09-01T01:08:44;0.98;;;0.98;;
8610;SDS011;4343;53.648;10.098;2022-09-01T01:11:22;1.00;;;1.00;;
8610;SDS011;4343;53.648;10.098;2022-09-01T01:13:52;1.00;;;1.00;;
8610;SDS011;4343;53.648;10.098;2022-09-01T01:16:20;1.20;;;1.20;;
8610;SDS011;4343;53.648;10.098;2022-09-01T01:18:51;1.70;;;1.15;;
8610;SDS011;4343;53.648;10.098;2022-09-01T01:21:19;1.02;;;1.02;;
8610;SDS011;4343;53.648;10.098;2022-09-01T01:26:55;0.82;;;0.82;;
8610;SDS011;4343;53.648;10.098;2022-09-01T01:29:24;1.23;;;1.10;;
8610;SDS011;4343;53.648;10.098;2022-09-01T01:31:52;1.20;;;1.20;;
8610;SDS011;4343;53.648;10.098;2022-09-01T01:34:18;1.00;;;1.00;;
8610;SDS011;4343;53.648;10.098;2022-09-01T01:36:44;1.02;;;1.02;;
8610;SDS011;4343;53.648;10.098;2022-09-01T01:39:12;1.00;;;1.00;;
8610;SDS011;4343;53.648;10.098;2022-09-01T01:41:44;1.15;;;1.10;;
8610;SDS011;4343;53.648;10.098;2022-09-01T01:44:13;1.05;;;1.05;;
8610;SDS011;4343;53.648;10.098;2022-09-01T01:46:41;1.85;;;1.25;;
8610;SDS011;4343;53.648;10.098;2022-09-01T01:49:09;1.10;;;1.10;;
8610;SDS011;4343;53.648;10.098;2022-09-01T01:51:37;1.10;;;1.10;;
8610;SDS011;4343;53.648;10.098;2022-09-01T01:54:03;1.30;;;1.15;;
8610;SDS011;4343;53.648;10.098;2022-09-01T01:56:31;1.25;;;1.10;;
8610;SDS011;4343;53.648;10.098;2022-09-01T01:58:57;1.10;;;1.10;;
8610;SDS011;4343;53.648;10.098;2022-09-01T02:01:26;1.10;;;1.10;;
8610;SDS011;4343;53.648;10.098;2022-09-01T02:03:54;1.10;;;1.10;;
8610;SDS011;4343;53.648;10.098;2022-09-01T02:06:21;0.95;;;0.95;;
8610;SDS011;4343;53.648;10.098;2022-09-01T02:08:52;1.30;;;1.02;;
8610;SDS011;4343;53.648;10.098;2022-09-01T02:38:25;1.02;;;1.02;;
8610;SDS011;4343;53.648;10.098;2022-09-01T02:40:53;1.20;;;1.10;;
8610;SDS011;4343;53.648;10.098;2022-09-01T02:43:20;0.93;;;0.93;;
8610;SDS011;4343;53.648;10.098;2022-09-01T02:45:47;1.00;;;1.00;;
8610;SDS011;4343;53.648;10.098;2022-09-01T02:48:24;1.17;;;1.17;;
8610;SDS011;4343;53.648;10.098;2022-09-01T02:50:56;1.00;;;1.00;;
8610;SDS011;4343;53.648;10.098;2022-09-01T02:53:23;1.30;;;1.30;;
8610;SDS011;4343;53.648;10.098;2022-09-01T02:55:49;1.20;;;1.05;;
8610;SDS011;4343;53.648;10.098;2022-09-01T02:58:15;1.02;;;1.02;;
8610;SDS011;4343;53.648;10.098;2022-09-01T03:00:44;1.10;;;1.10;;
8610;SDS011;4343;53.648;10.098;2022-09-01T03:03:10;1.40;;;1.30;;
8610;SDS011;4343;53.648;10.098;2022-09-01T03:05:43;1.48;;;1.20;;
8610;SDS011;4343;53.648;10.098;2022-09-01T03:08:09;1.20;;;1.20;;
8610;SDS011;4343;53.648;10.098;2022-09-01T03:10:39;1.10;;;1.10;;
8610;SDS011;4343;53.648;10.098;2022-09-01T03:13:16;1.20;;;1.20;;
8610;SDS011;4343;53.648;10.098;2022-09-01T03:15:44;1.33;;;1.33;;
8610;SDS011;4343;53.648;10.098;2022-09-01T03:18:11;1.30;;;1.30;;
8610;SDS011;4343;53.648;10.098;2022-09-01T03:20:38;1.60;;;1.40;;
8610;SDS011;4343;53.648;10.098;2022-09-01T03:23:07;1.25;;;1.23;;
8610;SDS011;4343;53.648;10.098;2022-09-01T03:25:36;1.50;;;1.50;;
8610;SDS011;4343;53.648;10.098;2022-09-01T03:28:03;1.55;;;1.55;;
8610;SDS011;4343;53.648;10.098;2022-09-01T03:30:30;1.50;;;1.40;;
8610;SDS011;4343;53.648;10.098;2022-09-01T03:32:58;1.60;;;1.60;;
8610;SDS011;4343;53.648;10.098;2022-09-01T03:35:25;1.50;;;1.50;;
8610;SDS011;4343;53.648;10.098;2022-09-01T03:37:52;1.60;;;1.60;;
8610;SDS011;4343;53.648;10.098;2022-09-01T03:40:22;1.60;;;1.60;;
8610;SDS011;4343;53.648;10.098;2022-09-01T03:42:47;1.60;;;1.60;;
8610;SDS011;4343;53.648;10.098;2022-09-01T03:45:13;2.00;;;1.90;;
8610;SDS011;4343;53.648;10.098;2022-09-01T03:47:40;1.73;;;1.63;;
8610;SDS011;4343;53.648;10.098;2022-09-01T03:50:08;1.50;;;1.50;;
8610;SDS011;4343;53.648;10.098;2022-09-01T03:52:44;1.70;;;1.60;;
8610;SDS011;4343;53.648;10.098;2022-09-01T03:55:13;1.60;;;1.60;;
8610;SDS011;4343;53.648;10.098;2022-09-01T03:57:47;1.80;;;1.70;;
8610;SDS011;4343;53.648;10.098;2022-09-01T04:00:17;1.70;;;1.60;;
8610;SDS011;4343;53.648;10.098;2022-09-01T04:02:48;1.80;;;1.80;;
8610;SDS011;4343;53.648;10.098;2022-09-01T04:05:16;1.70;;;1.70;;
8610;SDS011;4343;53.648;10.098;2022-09-01T04:07:44;1.55;;;1.52;;
8610;SDS011;4343;53.648;10.098;2022-09-01T04:10:10;1.52;;;1.52;;
8610;SDS011;4343;53.648;10.098;2022-09-01T04:12:36;1.70;;;1.70;;
8610;SDS011;4343;53.648;10.098;2022-09-01T04:15:03;1.42;;;1.42;;
8610;SDS011;4343;53.648;10.098;2022-09-01T04:17:29;1.55;;;1.50;;
8610;SDS011;4343;53.648;10.098;2022-09-01T04:20:14;1.50;;;1.50;;
8610;SDS011;4343;53.648;10.098;2022-09-01T04:22:44;1.58;;;1.58;;
8610;SDS011;4343;53.648;10.098;2022-09-01T04:25:11;1.70;;;1.60;;
8610;SDS011;4343;53.648;10.098;2022-09-01T04:27:37;1.67;;;1.58;;
8610;SDS011;4343;53.648;10.098;2022-09-01T04:30:04;1.55;;;1.52;;
8610;SDS011;4343;53.648;10.098;2022-09-01T04:32:35;1.70;;;1.60;;
8610;SDS011;4343;53.648;10.098;2022-09-01T04:35:02;1.70;;;1.60;;
8610;SDS011;4343;53.648;10.098;2022-09-01T04:37:28;1.80;;;1.80;;
8610;SDS011;4343;53.648;10.098;2022-09-01T04:39:55;1.85;;;1.80;;
8610;SDS011;4343;53.648;10.098;2022-09-01T04:42:21;1.92;;;1.83;;
8610;SDS011;4343;53.648;10.098;2022-09-01T04:44:52;1.73;;;1.73;;
8610;SDS011;4343;53.648;10.098;2022-09-01T04:47:21;2.08;;;1.98;;
8610;SDS011;4343;53.648;10.098;2022-09-01T04:49:54;1.80;;;1.70;;
8610;SDS011;4343;53.648;10.098;2022-09-01T04:52:25;1.80;;;1.80;;
8610;SDS011;4343;53.648;10.098;2022-09-01T04:54:51;2.20;;;2.10;;
8610;SDS011;4343;53.648;10.098;2022-09-01T04:57:18;1.80;;;1.80;;
8610;SDS011;4343;53.648;10.098;2022-09-01T04:59:45;2.15;;;2.05;;
8610;SDS011;4343;53.648;10.098;2022-09-01T05:02:10;2.07;;;1.97;;
8610;SDS011;4343;53.648;10.098;2022-09-01T05:04:36;1.90;;;1.80;;
8610;SDS011;4343;53.648;10.098;2022-09-01T05:07:04;2.17;;;2.08;;
8610;SDS011;4343;53.648;10.098;2022-09-01T05:09:33;1.90;;;1.90;;
8610;SDS011;4343;53.648;10.098;2022-09-01T05:12:00;1.90;;;1.85;;
8610;SDS011;4343;53.648;10.098;2022-09-01T05:14:35;2.30;;;2.20;;
8610;SDS011;4343;53.648;10.098;2022-09-01T05:17:02;1.85;;;1.85;;
8610;SDS011;4343;53.648;10.098;2022-09-01T05:19:34;1.50;;;1.50;;
8610;SDS011;4343;53.648;10.098;2022-09-01T05:22:01;1.70;;;1.70;;
8610;SDS011;4343;53.648;10.098;2022-09-01T05:24:28;1.95;;;1.80;;
8610;SDS011;4343;53.648;10.098;2022-09-01T05:26:56;1.75;;;1.75;;
8610;SDS011;4343;53.648;10.098;2022-09-01T05:29:23;1.70;;;1.70;;
8610;SDS011;4343;53.648;10.098;2022-09-01T05:31:49;2.00;;;1.90;;
8610;SDS011;4343;53.648;10.098;2022-09-01T05:34:16;1.90;;;1.80;;
8610;SDS011;4343;53.648;10.098;2022-09-01T05:36:47;2.30;;;2.00;;
8610;SDS011;4343;53.648;10.098;2022-09-01T05:39:15;1.73;;;1.70;;
8610;SDS011;4343;53.648;10.098;2022-09-01T05:41:41;1.70;;;1.70;;
8610;SDS011;4343;53.648;10.098;2022-09-01T05:44:12;1.90;;;1.80;;
8610;SDS011;4343;53.648;10.098;2022-09-01T05:46:39;1.85;;;1.77;;
8610;SDS011;4343;53.648;10.098;2022-09-01T05:49:08;1.90;;;1.80;;
8610;SDS011;4343;53.648;10.098;2022-09-01T05:51:38;1.95;;;1.85;;
8610;SDS011;4343;53.648;10.098;2022-09-01T05:54:05;2.00;;;1.80;;
8610;SDS011;4343;53.648;10.098;2022-09-01T05:56:33;2.10;;;2.00;;
8610;SDS011;4343;53.648;10.098;2022-09-01T05:59:00;1.65;;;1.63;;
8610;SDS011;4343;53.648;10.098;2022-09-01T06:01:27;1.97;;;1.87;;
8610;SDS011;4343;53.648;10.098;2022-09-01T06:03:55;2.10;;;1.80;;
8610;SDS011;4343;53.648;10.098;2022-09-01T06:06:25;1.83;;;1.80;;
8610;SDS011;4343;53.648;10.098;2022-09-01T06:08:52;1.90;;;1.80;;
8610;SDS011;4343;53.648;10.098;2022-09-01T06:11:22;1.80;;;1.70;;
8610;SDS011;4343;53.648;10.098;2022-09-01T06:13:48;1.40;;;1.40;;
8610;SDS011;4343;53.648;10.098;2022-09-01T06:16:16;1.45;;;1.45;;
8610;SDS011;4343;53.648;10.098;2022-09-01T06:18:43;1.90;;;1.80;;
8610;SDS011;4343;53.648;10.098;2022-09-01T06:21:10;1.98;;;1.50;;
8610;SDS011;4343;53.648;10.098;2022-09-01T06:23:39;1.33;;;1.23;;
8610;SDS011;4343;53.648;10.098;2022-09-01T06:26:06;1.70;;;1.58;;
8610;SDS011;4343;53.648;10.098;2022-09-01T06:28:41;1.38;;;1.38;;
8610;SDS011;4343;53.648;10.098;2022-09-01T06:31:07;1.73;;;1.60;;
8610;SDS011;4343;53.648;10.098;2022-09-01T06:33:33;1.30;;;1.30;;
8610;SDS011;4343;53.648;10.098;2022-09-01T06:36:00;1.27;;;1.25;;
8610;SDS011;4343;53.648;10.098;2022-09-01T06:38:27;1.30;;;1.25;;
8610;SDS011;4343;53.648;10.098;2022-09-01T06:41:00;1.40;;;1.30;;
8610;SDS011;4343;53.648;10.098;2022-09-01T06:43:28;1.00;;;1.00;;
8610;SDS011;4343;53.648;10.098;2022-09-01T06:45:54;1.13;;;1.13;;
8610;SDS011;4343;53.648;10.098;2022-09-01T06:53:13;1.00;;;1.00;;
8610;SDS011;4343;53.648;10.098;2022-09-01T06:55:43;1.80;;;0.95;;
8610;SDS011;4343;53.648;10.098;2022-09-01T07:35:12;1.00;;;1.00;;
8610;SDS011;4343;53.648;10.098;2022-09-01T07:37:40;0.90;;;0.90;;
8610;SDS011;4343;53.648;10.098;2022-09-01T07:40:07;1.00;;;1.00;;
8610;SDS011;4343;53.648;10.098;2022-09-01T07:42:43;0.65;;;0.65;;
8610;SDS011;4343;53.648;10.098;2022-09-01T07:45:13;0.80;;;0.80;;
8610;SDS011;4343;53.648;10.098;2022-09-01T07:47:41;0.70;;;0.70;;
8610;SDS011;4343;53.648;10.098;2022-09-01T07:50:09;0.50;;;0.50;;
8610;SDS011;4343;53.648;10.098;2022-09-01T07:52:37;0.52;;;0.52;;
8610;SDS011;4343;53.648;10.098;2022-09-01T07:55:11;0.80;;;0.80;;
8610;SDS011;4343;53.648;10.098;2022-09-01T07:57:38;0.63;;;0.63;;
8610;SDS011;4343;53.648;10.098;2022-09-01T08:00:07;0.90;;;0.90;;
8610;SDS011;4343;53.648;10.098;2022-09-01T08:02:37;0.60;;;0.60;;
8610;SDS011;4343;53.648;10.098;2022-09-01T08:05:04;2.58;;;0.90;;
8610;SDS011;4343;53.648;10.098;2022-09-01T08:07:34;0.70;;;0.70;;
8610;SDS011;4343;53.648;10.098;2022-09-01T08:10:00;0.63;;;0.63;;
8610;SDS011;4343;53.648;10.098;2022-09-01T08:12:26;0.63;;;0.63;;
8610;SDS011;4343;53.648;10.098;2022-09-01T08:14:52;0.60;;;0.60;;
8610;SDS011;4343;53.648;10.098;2022-09-01T08:17:18;0.80;;;0.80;;
8610;SDS011;4343;53.648;10.098;2022-09-01T08:19:44;0.70;;;0.70;;
8610;SDS011;4343;53.648;10.098;2022-09-01T08:22:11;0.47;;;0.47;;
8610;SDS011;4343;53.648;10.098;2022-09-01T08:24:36;1.65;;;0.80;;
8610;SDS011;4343;53.648;10.098;2022-09-01T08:27:02;0.77;;;0.73;;
8610;SDS011;4343;53.648;10.098;2022-09-01T08:29:28;0.65;;;0.65;;
8610;SDS011;4343;53.648;10.098;2022-09-01T08:31:54;0.40;;;0.40;;
8610;SDS011;4343;53.648;10.098;2022-09-01T08:34:19;0.55;;;0.55;;
8610;SDS011;4343;53.648;10.098;2022-09-01T08:36:45;0.60;;;0.60;;
8610;SDS011;4343;53.648;10.098;2022-09-01T08:39:10;0.75;;;0.75;;
8610;SDS011;4343;53.648;10.098;2022-09-01T08:41:43;1.85;;;0.82;;
8610;SDS011;4343;53.648;10.098;2022-09-01T08:44:21;0.80;;;0.63;;
8610;SDS011;4343;53.648;10.098;2022-09-01T08:47:11;0.70;;;0.70;;
8610;SDS011;4343;53.648;10.098;2022-09-01T08:49:40;0.70;;;0.70;;
8610;SDS011;4343;53.648;10.098;2022-09-01T08:52:16;0.60;;;0.60;;
8610;SDS011;4343;53.648;10.098;2022-09-01T08:54:56;0.60;;;0.60;;
8610;SDS011;4343;53.648;10.098;2022-09-01T08:57:34;0.50;;;0.50;;
8610;SDS011;4343;53.648;10.098;2022-09-01T09:00:03;0.68;;;0.68;;
8610;SDS011;4343;53.648;10.098;2022-09-01T09:08:01;0.70;;;0.70;;
8610;SDS011;4343;53.648;10.098;2022-09-01T09:10:35;0.60;;;0.60;;
8610;SDS011;4343;53.648;10.098;2022-09-01T09:21:36;0.60;;;0.60;;
8610;SDS011;4343;53.648;10.098;2022-09-01T09:26:55;0.52;;;0.52;;
8610;SDS011;4343;53.648;10.098;2022-09-01T09:29:23;0.73;;;0.60;;
8610;SDS011;4343;53.648;10.098;2022-09-01T09:32:00;0.77;;;0.77;;
8610;SDS011;4343;53.648;10.098;2022-09-01T09:34:36;0.50;;;0.50;;
8610;SDS011;4343;53.648;10.098;2022-09-01T09:39:44;0.70;;;0.70;;
8610;SDS011;4343;53.648;10.098;2022-09-01T09:42:34;0.75;;;0.60;;
8610;SDS011;4343;53.648;10.098;2022-09-01T09:45:03;0.52;;;0.52;;
8610;SDS011;4343;53.648;10.098;2022-09-01T09:47:36;1.45;;;0.73;;
8610;SDS011;4343;53.648;10.098;2022-09-01T09:50:11;0.50;;;0.50;;
8610;SDS011;4343;53.648;10.098;2022-09-01T09:52:44;0.65;;;0.65;;
8610;SDS011;4343;53.648;10.098;2022-09-01T09:55:20;0.50;;;0.50;;
8610;SDS011;4343;53.648;10.098;2022-09-01T09:57:52;0.55;;;0.55;;
8610;SDS011;4343;53.648;10.098;2022-09-01T10:00:34;0.57;;;0.57;;
8610;SDS011;4343;53.648;10.098;2022-09-01T10:03:04;0.70;;;0.70;;
8610;SDS011;4343;53.648;10.098;2022-09-01T10:05:34;0.90;;;0.63;;
8610;SDS011;4343;53.648;10.098;2022-09-01T10:08:12;1.17;;;0.60;;
8610;SDS011;4343;53.648;10.098;2022-09-01T10:10:58;0.60;;;0.60;;
8610;SDS011;4343;53.648;10.098;2022-09-01T10:13:25;0.63;;;0.63;;
8610;SDS011;4343;53.648;10.098;2022-09-01T10:15:56;0.50;;;0.50;;
8610;SDS011;4343;53.648;10.098;2022-09-01T10:18:44;0.82;;;0.70;;
8610;SDS011;4343;53.648;10.098;2022-09-01T10:21:23;0.50;;;0.50;;
8610;SDS011;4343;53.648;10.098;2022-09-01T10:23:54;0.55;;;0.55;;
8610;SDS011;4343;53.648;10.098;2022-09-01T10:26:34;0.50;;;0.50;;
8610;SDS011;4343;53.648;10.098;2022-09-01T10:29:14;0.63;;;0.63;;
8610;SDS011;4343;53.648;10.098;2022-09-01T10:31:46;0.60;;;0.60;;
8610;SDS011;4343;53.648;10.098;2022-09-01T10:34:13;0.70;;;0.70;;
8610;SDS011;4343;53.648;10.098;2022-09-01T10:36:42;0.80;;;0.80;;
8610;SDS011;4343;53.648;10.098;2022-09-01T10:39:10;0.70;;;0.70;;
8610;SDS011;4343;53.648;10.098;2022-09-01T10:44:09;0.80;;;0.80;;
8610;SDS011;4343;53.648;10.098;2022-09-01T10:46:42;1.27;;;0.75;;
8610;SDS011;4343;53.648;10.098;2022-09-01T10:51:58;2.90;;;1.15;;
8610;SDS011;4343;53.648;10.098;2022-09-01T10:57:06;0.75;;;0.75;;
8610;SDS011;4343;53.648;10.098;2022-09-01T10:59:35;0.80;;;0.80;;
8610;SDS011;4343;53.648;10.098;2022-09-01T11:02:08;1.05;;;1.05;;
8610;SDS011;4343;53.648;10.098;2022-09-01T11:07:04;0.63;;;0.63;;
8610;SDS011;4343;53.648;10.098;2022-09-01T11:25:43;0.70;;;0.70;;
8610;SDS011;4343;53.648;10.098;2022-09-01T11:30:45;0.70;;;0.70;;
8610;SDS011;4343;53.648;10.098;2022-09-01T11:36:00;1.30;;;0.80;;
8610;SDS011;4343;53.648;10.098;2022-09-01T11:38:31;0.88;;;0.70;;
8610;SDS011;4343;53.648;10.098;2022-09-01T11:41:07;0.70;;;0.70;;
8610;SDS011;4343;53.648;10.098;2022-09-01T11:43:33;0.70;;;0.70;;
8610;SDS011;4343;53.648;10.098;2022-09-01T11:48:36;0.75;;;0.75;;
8610;SDS011;4343;53.648;10.098;2022-09-01T11:51:03;0.60;;;0.60;;
8610;SDS011;4343;53.648;10.098;2022-09-01T11:53:29;0.68;;;0.68;;
8610;SDS011;4343;53.648;10.098;2022-09-01T11:55:55;0.75;;;0.75;;
8610;SDS011;4343;53.648;10.098;2022-09-01T11:58:38;0.70;;;0.70;;
8610;SDS011;4343;53.648;10.098;2022-09-01T12:01:13;1.08;;;0.85;;
8610;SDS011;4343;53.648;10.098;2022-09-01T12:03:45;1.48;;;0.70;;
8610;SDS011;4343;53.648;10.098;2022-09-01T12:06:18;0.70;;;0.70;;
8610;SDS011;4343;53.648;10.098;2022-09-01T12:08:50;0.70;;;0.70;;
8610;SDS011;4343;53.648;10.098;2022-09-01T12:11:29;0.50;;;0.50;;
8610;SDS011;4343;53.648;10.098;2022-09-01T12:16:34;1.02;;;0.65;;
8610;SDS011;4343;53.648;10.098;2022-09-01T12:19:02;0.77;;;0.77;;
8610;SDS011;4343;53.648;10.098;2022-09-01T12:21:31;0.60;;;0.60;;
8610;SDS011;4343;53.648;10.098;2022-09-01T12:24:20;0.80;;;0.80;;
8610;SDS011;4343;53.648;10.098;2022-09-01T12:26:48;0.63;;;0.63;;
8610;SDS011;4343;53.648;10.098;2022-09-01T12:29:18;0.80;;;0.80;;
8610;SDS011;4343;53.648;10.098;2022-09-01T12:31:45;0.50;;;0.50;;
8610;SDS011;4343;53.648;10.098;2022-09-01T12:34:25;1.98;;;0.82;;
8610;SDS011;4343;53.648;10.098;2022-09-01T12:39:51;0.63;;;0.63;;
8610;SDS011;4343;53.648;10.098;2022-09-01T12:45:00;0.70;;;0.70;;
8610;SDS011;4343;53.648;10.098;2022-09-01T12:49:58;0.90;;;0.90;;
8610;SDS011;4343;53.648;10.098;2022-09-01T12:52:45;0.75;;;0.75;;
8610;SDS011;4343;53.648;10.098;2022-09-01T12:55:19;0.60;;;0.60;;
8610;SDS011;4343;53.648;10.098;2022-09-01T12:57:49;0.80;;;0.80;;
8610;SDS011;4343;53.648;10.098;2022-09-01T13:00:18;0.80;;;0.80;;
8610;SDS011;4343;53.648;10.098;2022-09-01T13:02:51;0.85;;;0.85;;
8610;SDS011;4343;53.648;10.098;2022-09-01T13:08:09;0.60;;;0.60;;
8610;SDS011;4343;53.648;10.098;2022-09-01T13:10:37;0.65;;;0.65;;
8610;SDS011;4343;53.648;10.098;2022-09-01T13:13:14;1.15;;;1.05;;
8610;SDS011;4343;53.648;10.098;2022-09-01T13:15:42;0.82;;;0.82;;
8610;SDS011;4343;53.648;10.098;2022-09-01T13:18:12;0.73;;;0.60;;
8610;SDS011;4343;53.648;10.098;2022-09-01T13:20:38;0.80;;;0.80;;
8610;SDS011;4343;53.648;10.098;2022-09-01T13:23:04;0.93;;;0.77;;
8610;SDS011;4343;53.648;10.098;2022-09-01T13:25:29;0.82;;;0.82;;
8610;SDS011;4343;53.648;10.098;2022-09-01T13:27:55;0.60;;;0.60;;
8610;SDS011;4343;53.648;10.098;2022-09-01T13:30:24;0.65;;;0.65;;
8610;SDS011;4343;53.648;10.098;2022-09-01T13:32:52;0.75;;;0.73;;
8610;SDS011;4343;53.648;10.098;2022-09-01T13:35:19;0.80;;;0.80;;
8610;SDS011;4343;53.648;10.098;2022-09-01T13:37:45;0.70;;;0.70;;
8610;SDS011;4343;53.648;10.098;2022-09-01T13:40:12;1.73;;;0.80;;
8610;SDS011;4343;53.648;10.098;2022-09-01T13:42:41;0.73;;;0.73;;
8610;SDS011;4343;53.648;10.098;2022-09-01T13:45:07;0.73;;;0.73;;
8610;SDS011;4343;53.648;10.098;2022-09-01T13:47:37;0.60;;;0.60;;
8610;SDS011;4343;53.648;10.098;2022-09-01T13:50:05;2.95;;;0.60;;
8610;SDS011;4343;53.648;10.098;2022-09-01T13:52:32;0.50;;;0.50;;
8610;SDS011;4343;53.648;10.098;2022-09-01T13:54:58;0.70;;;0.70;;
8610;SDS011;4343;53.648;10.098;2022-09-01T13:57:25;0.73;;;0.73;;
8610;SDS011;4343;53.648;10.098;2022-09-01T13:59:51;0.80;;;0.80;;
8610;SDS011;4343;53.648;10.098;2022-09-01T14:02:16;0.73;;;0.73;;
8610;SDS011;4343;53.648;10.098;2022-09-01T14:04:42;0.88;;;0.88;;
8610;SDS011;4343;53.648;10.098;2022-09-01T14:07:07;1.52;;;0.90;;
8610;SDS011;4343;53.648;10.098;2022-09-01T14:09:33;0.80;;;0.80;;
8610;SDS011;4343;53.648;10.098;2022-09-01T14:11:59;0.60;;;0.60;;
8610;SDS011;4343;53.648;10.098;2022-09-01T14:14:24;0.70;;;0.70;;
8610;SDS011;4343;53.648;10.098;2022-09-01T14:16:50;0.93;;;0.88;;
8610;SDS011;4343;53.648;10.098;2022-09-01T14:19:16;2.05;;;0.90;;
8610;SDS011;4343;53.648;10.098;2022-09-01T14:21:42;0.70;;;0.70;;
8610;SDS011;4343;53.648;10.098;2022-09-01T14:24:08;0.90;;;0.90;;
8610;SDS011;4343;53.648;10.098;2022-09-01T14:26:33;1.05;;;0.90;;
8610;SDS011;4343;53.648;10.098;2022-09-01T14:28:59;1.13;;;0.80;;
8610;SDS011;4343;53.648;10.098;2022-09-01T14:31:26;0.98;;;0.98;;
8610;SDS011;4343;53.648;10.098;2022-09-01T14:33:53;1.00;;;1.00;;
8610;SDS011;4343;53.648;10.098;2022-09-01T14:36:21;1.20;;;1.08;;
8610;SDS011;4343;53.648;10.098;2022-09-01T14:38:47;0.75;;;0.75;;
8610;SDS011;4343;53.648;10.098;2022-09-01T14:41:17;0.60;;;0.60;;
8610;SDS011;4343;53.648;10.098;2022-09-01T14:43:45;0.70;;;0.70;;
8610;SDS011;4343;53.648;10.098;2022-09-01T14:46:11;0.63;;;0.63;;
8610;SDS011;4343;53.648;10.098;2022-09-01T14:48:37;0.80;;;0.80;;
8610;SDS011;4343;53.648;10.098;2022-09-01T14:51:04;1.45;;;0.80;;
8610;SDS011;4343;53.648;10.098;2022-09-01T14:53:30;1.38;;;0.88;;
8610;SDS011;4343;53.648;10.098;2022-09-01T14:55:57;0.68;;;0.68;;
8610;SDS011;4343;53.648;10.098;2022-09-01T14:58:24;1.80;;;0.57;;
8610;SDS011;4343;53.648;10.098;2022-09-01T15:00:51;0.93;;;0.88;;
8610;SDS011;4343;53.648;10.098;2022-09-01T15:03:19;0.70;;;0.70;;
8610;SDS011;4343;53.648;10.098;2022-09-01T15:05:45;0.70;;;0.70;;
8610;SDS011;4343;53.648;10.098;2022-09-01T15:08:11;0.70;;;0.70;;
8610;SDS011;4343;53.648;10.098;2022-09-01T15:10:37;0.90;;;0.77;;
8610;SDS011;4343;53.648;10.098;2022-09-01T15:13:04;0.95;;;0.80;;
8610;SDS011;4343;53.648;10.098;2022-09-01T15:15:29;3.05;;;0.80;;
8610;SDS011;4343;53.648;10.098;2022-09-01T15:17:56;0.90;;;0.82;;
8610;SDS011;4343;53.648;10.098;2022-09-01T15:20:23;0.95;;;0.77;;
8610;SDS011;4343;53.648;10.098;2022-09-01T15:23:07;0.80;;;0.80;;
8610;SDS011;4343;53.648;10.098;2022-09-01T15:25:34;0.77;;;0.77;;
8610;SDS011;4343;53.648;10.098;2022-09-01T15:27:59;0.82;;;0.82;;
8610;SDS011;4343;53.648;10.098;2022-09-01T15:30:25;1.35;;;0.90;;
8610;SDS011;4343;53.648;10.098;2022-09-01T15:32:52;0.60;;;0.60;;
8610;SDS011;4343;53.648;10.098;2022-09-01T15:35:18;0.80;;;0.80;;
8610;SDS011;4343;53.648;10.098;2022-09-01T15:37:45;1.30;;;1.05;;
8610;SDS011;4343;53.648;10.098;2022-09-01T15:40:12;1.20;;;1.20;;
8610;SDS011;4343;53.648;10.098;2022-09-01T15:42:39;1.05;;;1.05;;
8610;SDS011;4343;53.648;10.098;2022-09-01T15:45:06;0.85;;;0.85;;
8610;SDS011;4343;53.648;10.098;2022-09-01T15:47:34;0.77;;;0.77;;
8610;SDS011;4343;53.648;10.098;2022-09-01T15:50:00;0.63;;;0.60;;
8610;SDS011;4343;53.648;10.098;2022-09-01T15:52:27;0.70;;;0.70;;
8610;SDS011;4343;53.648;10.098;2022-09-01T15:54:53;2.28;;;0.70;;
8610;SDS011;4343;53.648;10.098;2022-09-01T15:57:19;0.70;;;0.70;;
8610;SDS011;4343;53.648;10.098;2022-09-01T15:59:45;2.15;;;0.90;;
8610;SDS011;4343;53.648;10.098;2022-09-01T16:02:10;4.00;;;0.77;;
8610;SDS011;4343;53.648;10.098;2022-09-01T16:04:39;0.80;;;0.80;;
8610;SDS011;4343;53.648;10.098;2022-09-01T16:07:04;0.93;;;0.90;;
8610;SDS011;4343;53.648;10.098;2022-09-01T16:09:30;0.88;;;0.85;;
8610;SDS011;4343;53.648;10.098;2022-09-01T16:11:56;1.00;;;1.00;;
8610;SDS011;4343;53.648;10.098;2022-09-01T16:14:21;1.38;;;0.90;;
8610;SDS011;4343;53.648;10.098;2022-09-01T16:19:40;1.00;;;1.00;;
8610;SDS011;4343;53.648;10.098;2022-09-01T16:24:48;0.95;;;0.95;;
8610;SDS011;4343;53.648;10.098;2022-09-01T16:27:19;1.45;;;0.82;;
8610;SDS011;4343;53.648;10.098;2022-09-01T16:29:55;0.60;;;0.60;;
8610;SDS011;4343;53.648;10.098;2022-09-01T16:32:25;0.73;;;0.73;;
8610;SDS011;4343;53.648;10.098;2022-09-01T16:34:51;0.65;;;0.65;;
8610;SDS011;4343;53.648;10.098;2022-09-01T16:39:47;0.70;;;0.70;;
8610;SDS011;4343;53.648;10.098;2022-09-01T16:50:58;0.88;;;0.88;;
8610;SDS011;4343;53.648;10.098;2022-09-01T16:53:58;0.82;;;0.82;;
8610;SDS011;4343;53.648;10.098;2022-09-01T16:56:29;1.80;;;1.10;;
8610;SDS011;4343;53.648;10.098;2022-09-01T17:02:04;0.85;;;0.85;;
8610;SDS011;4343;53.648;10.098;2022-09-01T17:04:34;0.60;;;0.60;;
8610;SDS011;4343;53.648;10.098;2022-09-01T17:12:51;0.70;;;0.70;;
8610;SDS011;4343;53.648;10.098;2022-09-01T17:15:33;2.22;;;0.80;;
8610;SDS011;4343;53.648;10.098;2022-09-01T17:20:58;0.85;;;0.80;;
8610;SDS011;4343;53.648;10.098;2022-09-01T17:23:36;0.85;;;0.85;;
8610;SDS011;4343;53.648;10.098;2022-09-01T17:26:15;0.70;;;0.70;;
8610;SDS011;4343;53.648;10.098;2022-09-01T17:29:01;0.60;;;0.60;;
8610;SDS011;4343;53.648;10.098;2022-09-01T17:31:41;0.70;;;0.70;;
8610;SDS011;4343;53.648;10.098;2022-09-01T17:34:29;0.60;;;0.60;;
8610;SDS011;4343;53.648;10.098;2022-09-01T17:39:37;0.57;;;0.57;;
8610;SDS011;4343;53.648;10.098;2022-09-01T17:44:54;0.70;;;0.70;;
8610;SDS011;4343;53.648;10.098;2022-09-01T17:47:47;1.38;;;0.85;;
8610;SDS011;4343;53.648;10.098;2022-09-01T17:50:24;0.70;;;0.70;;
8610;SDS011;4343;53.648;10.098;2022-09-01T17:57:55;0.80;;;0.80;;
8610;SDS011;4343;53.648;10.098;2022-09-01T18:00:49;4.15;;;0.80;;
8610;SDS011;4343;53.648;10.098;2022-09-01T18:03:40;0.77;;;0.77;;
8610;SDS011;4343;53.648;10.098;2022-09-01T18:06:30;1.00;;;1.00;;
8610;SDS011;4343;53.648;10.098;2022-09-01T18:09:11;1.33;;;0.80;;
8610;SDS011;4343;53.648;10.098;2022-09-01T18:11:48;0.90;;;0.90;;
8610;SDS011;4343;53.648;10.098;2022-09-01T18:14:23;0.80;;;0.80;;